createdAt,value
2022-11-21T00:01:12.506Z,4.90
2022-11-21T01:49:27.381Z,5.30
2022-11-21T01:52:03.037Z,5.30
2022-11-21T01:54:36.722Z,5.20
2022-11-21T01:57:21.577Z,5.20
2022-11-21T02:00:00.851Z,5.20
2022-11-21T02:02:34.505Z,5.20
2022-11-21T02:05:02.628Z,5.20
2022-11-21T02:07:34.048Z,5.10
2022-11-21T02:10:03.161Z,5.10
2022-11-21T02:12:37.881Z,5.10
2022-11-21T02:17:33.061Z,5.00
2022-11-21T02:20:02.940Z,5.10
2022-11-21T02:22:46.816Z,5.10
2022-11-21T02:25:23.094Z,5.00
2022-11-21T02:27:55.474Z,5.00
2022-11-21T02:35:18.574Z,4.90
2022-11-21T02:37:48.210Z,4.90
2022-11-21T02:40:20.565Z,4.90
2022-11-21T02:43:00.271Z,4.90
2022-11-21T02:45:44.237Z,4.90
2022-11-21T02:48:11.755Z,4.90
2022-11-21T02:50:42.903Z,4.80
2022-11-21T02:53:13.282Z,4.80
2022-11-21T03:00:37.020Z,4.90
2022-11-21T03:15:34.684Z,5.00
2022-11-21T03:18:03.184Z,4.90
2022-11-21T03:20:31.702Z,4.90
2022-11-21T03:27:54.132Z,4.90
2022-11-21T03:30:22.692Z,4.90
2022-11-21T03:47:34.221Z,4.90
2022-11-21T04:26:54.835Z,4.90
2022-11-21T05:46:14.570Z,4.40
2022-11-21T05:56:08.803Z,4.40
2022-11-21T06:01:04.015Z,4.40
2022-11-21T06:03:34.161Z,4.40
2022-11-21T06:06:09.821Z,4.40
2022-11-21T06:08:43.461Z,4.40
2022-11-21T06:11:12.435Z,4.40
2022-11-21T06:16:08.657Z,4.30
2022-11-21T06:18:38.092Z,4.30
2022-11-21T06:21:07.749Z,4.30
2022-11-21T06:23:35.789Z,4.40
2022-11-21T06:26:05.153Z,4.40
2022-11-21T06:28:34.599Z,4.30
2022-11-21T06:31:13.699Z,4.40
2022-11-21T06:33:41.785Z,4.40
2022-11-21T06:36:11.423Z,4.40
2022-11-21T06:41:16.588Z,4.40
2022-11-21T06:48:38.869Z,4.50
2022-11-21T06:51:15.475Z,4.50
2022-11-21T07:01:05.828Z,4.50
2022-11-21T07:06:01.892Z,4.50
2022-11-21T07:08:30.111Z,4.60
2022-11-21T07:16:15.357Z,4.60
2022-11-21T07:21:10.201Z,4.50
2022-11-21T07:26:06.770Z,4.60
2022-11-21T07:28:34.288Z,4.60
2022-11-21T07:31:01.813Z,4.60
2022-11-21T07:35:57.583Z,4.60
2022-11-21T07:38:25.924Z,4.70
2022-11-21T07:53:11.659Z,4.80
2022-11-21T07:58:13.122Z,4.80
2022-11-21T08:00:42.850Z,4.80
2022-11-21T08:05:43.947Z,4.90
2022-11-21T08:08:12.978Z,4.90
2022-11-21T08:10:44.810Z,4.90
2022-11-21T08:18:20.593Z,5.00
2022-11-21T08:25:43.300Z,5.00
2022-11-21T08:28:11.798Z,5.00
2022-11-21T08:30:39.972Z,5.00
2022-11-21T08:35:37.848Z,5.00
2022-11-21T08:40:32.829Z,5.00
2022-11-21T08:43:04.731Z,5.00
2022-11-21T08:45:32.424Z,5.00
2022-11-21T08:53:02.328Z,5.10
2022-11-21T09:15:29.765Z,5.40
2022-11-21T09:18:03.796Z,5.40
2022-11-21T09:20:38.831Z,5.40
2022-11-21T09:23:06.983Z,5.40
2022-11-21T09:28:04.223Z,5.50
2022-11-21T09:33:02.176Z,5.60
2022-11-21T09:43:36.356Z,5.70
2022-11-21T09:46:21.799Z,5.70
2022-11-21T09:49:00.445Z,5.80
2022-11-21T09:51:30.951Z,5.80
2022-11-21T09:54:07.573Z,5.80
2022-11-21T09:56:38.577Z,5.90
2022-11-21T09:59:34.025Z,5.80
2022-11-21T10:02:01.481Z,5.80
2022-11-21T10:07:04.167Z,5.90
2022-11-21T10:12:37.094Z,5.90
2022-11-21T10:15:25.443Z,5.90
2022-11-21T10:18:10.116Z,6.00
2022-11-21T10:23:36.902Z,6.10
2022-11-21T10:26:22.379Z,6.20
2022-11-21T10:29:23.967Z,6.20
2022-11-21T10:31:53.913Z,6.20
2022-11-21T10:34:24.283Z,6.20
2022-11-21T10:36:58.909Z,6.30
2022-11-21T10:39:34.841Z,6.20
2022-11-21T10:42:34.919Z,6.20
2022-11-21T10:45:19.237Z,6.20
2022-11-21T10:47:51.140Z,6.20
2022-11-21T10:50:55.531Z,6.20
2022-11-21T10:53:44.036Z,6.30
2022-11-21T10:56:21.297Z,6.30
2022-11-21T10:58:50.771Z,6.30
2022-11-21T11:01:33.952Z,6.40
2022-11-21T11:04:27.422Z,6.40
2022-11-21T11:09:48.766Z,6.50
2022-11-21T11:12:52.485Z,6.40
2022-11-21T11:15:24.466Z,6.40
2022-11-21T11:18:09.334Z,6.40
2022-11-21T11:20:39.266Z,6.50
2022-11-21T11:23:18.060Z,6.50
2022-11-21T11:25:53.321Z,6.60
2022-11-21T11:30:49.213Z,6.80
2022-11-21T11:33:38.535Z,6.80
2022-11-21T11:36:37.058Z,6.80
2022-11-21T11:39:31.328Z,6.80
2022-11-21T11:42:34.943Z,6.80
2022-11-21T11:45:32.174Z,6.80
2022-11-21T11:48:07.500Z,6.90
2022-11-21T11:50:46.249Z,6.90
2022-11-21T11:53:20.203Z,6.90
2022-11-21T11:56:08.337Z,6.90
2022-11-21T11:59:01.784Z,7.00
2022-11-21T12:01:41.193Z,7.00
2022-11-21T12:04:21.003Z,7.10
2022-11-21T12:08:19.841Z,7.10
2022-11-21T12:10:24.935Z,7.10
2022-11-21T12:12:58.116Z,7.30
2022-11-21T12:15:49.960Z,7.40
2022-11-21T12:18:19.725Z,7.60
2022-11-21T12:20:57.546Z,7.40
2022-11-21T12:23:47.416Z,7.60
2022-11-21T12:28:56.179Z,7.70
2022-11-21T12:31:41.494Z,7.60
2022-11-21T12:34:42.056Z,7.60
2022-11-21T12:37:28.789Z,7.60
2022-11-21T12:40:26.739Z,7.70
2022-11-21T12:43:18.107Z,7.70
2022-11-21T12:48:44.053Z,7.80
2022-11-21T12:51:58.521Z,7.70
2022-11-21T12:57:03.806Z,8.00
2022-11-21T12:59:44.928Z,7.90
2022-11-21T13:02:36.179Z,7.80
2022-11-21T13:05:06.062Z,7.70
2022-11-21T13:10:02.802Z,7.70
2022-11-21T13:12:43.763Z,7.60
2022-11-21T13:15:50.488Z,7.70
2022-11-21T13:18:24.271Z,7.60
2022-11-21T13:20:52.546Z,7.50
2022-11-21T13:23:45.414Z,7.50
2022-11-21T13:26:30.402Z,7.40
2022-11-21T13:29:14.355Z,7.30
2022-11-21T13:34:37.422Z,7.20
2022-11-21T13:37:05.642Z,7.20
2022-11-21T13:39:34.640Z,7.10
2022-11-21T13:42:22.114Z,7.00
2022-11-21T13:44:50.120Z,7.10
2022-11-21T13:47:25.693Z,7.00
2022-11-21T13:57:44.689Z,7.10
2022-11-21T14:00:29.610Z,7.00
2022-11-21T14:05:56.692Z,7.00
2022-11-21T14:08:26.899Z,6.90
2022-11-21T14:10:56.288Z,6.90
2022-11-21T14:13:32.302Z,6.80
2022-11-21T14:16:11.123Z,6.70
2022-11-21T14:18:42.309Z,6.70
2022-11-21T14:21:22.628Z,6.60
2022-11-21T14:26:20.079Z,6.50
2022-11-21T14:33:44.105Z,6.50
2022-11-21T14:36:31.809Z,6.50
2022-11-21T14:39:34.695Z,6.60
2022-11-21T14:42:01.912Z,6.60
2022-11-21T14:47:14.896Z,6.60
2022-11-21T14:49:51.883Z,6.60
2022-11-21T14:52:26.074Z,6.60
2022-11-21T14:55:29.786Z,6.50
2022-11-21T15:06:00.214Z,6.40
2022-11-21T15:11:14.247Z,6.40
2022-11-21T15:26:33.437Z,6.00
2022-11-21T15:29:01.361Z,5.90
2022-11-21T15:31:28.598Z,5.90
2022-11-21T15:34:33.645Z,5.70
2022-11-21T15:37:05.001Z,5.60
2022-11-21T15:42:33.199Z,5.40
2022-11-21T15:45:02.389Z,5.10
2022-11-21T16:02:14.653Z,4.60
2022-11-21T16:04:42.131Z,4.30
2022-11-21T16:44:16.537Z,3.90
2022-11-21T16:46:45.311Z,3.80
2022-11-21T16:49:12.951Z,3.80
2022-11-21T17:06:28.734Z,3.50
2022-11-21T17:11:29.268Z,3.60
2022-11-21T17:14:00.498Z,3.60
2022-11-21T17:18:56.998Z,3.60
2022-11-21T17:26:21.053Z,3.40
2022-11-21T17:28:59.039Z,3.20
2022-11-21T17:31:27.161Z,3.10
2022-11-21T17:33:56.850Z,3.00
2022-11-21T17:36:25.660Z,2.90
2022-11-21T17:41:21.888Z,2.90
2022-11-21T17:46:18.593Z,2.80
2022-11-21T17:48:51.457Z,2.90
2022-11-21T17:51:27.525Z,2.90
2022-11-21T17:56:23.427Z,2.80
2022-11-21T17:58:51.344Z,2.80
2022-11-21T18:03:48.002Z,2.70
2022-11-21T18:06:16.654Z,2.60
2022-11-21T18:08:45.775Z,2.60
2022-11-21T18:11:14.627Z,2.60
2022-11-21T18:13:42.123Z,2.60
2022-11-21T18:16:17.868Z,2.50
2022-11-21T18:21:17.830Z,2.50
2022-11-21T18:26:14.595Z,2.40
2022-11-21T18:31:10.937Z,2.30
2022-11-21T18:33:38.583Z,2.30
2022-11-21T18:36:07.625Z,2.40
2022-11-21T18:38:58.368Z,2.40
2022-11-21T18:41:31.349Z,2.40
2022-11-21T18:44:00.283Z,2.30
2022-11-21T18:46:28.898Z,2.30
2022-11-21T18:49:06.297Z,2.20
2022-11-21T18:54:08.330Z,2.20
2022-11-21T19:01:34.277Z,2.10
2022-11-21T19:08:57.664Z,2.00
2022-11-21T19:11:29.019Z,2.00
2022-11-21T19:13:57.149Z,2.00
2022-11-21T19:16:26.312Z,2.00
2022-11-21T19:24:14.133Z,1.90
2022-11-21T19:29:10.111Z,1.90
2022-11-21T19:44:02.333Z,1.70
2022-11-21T19:46:39.665Z,1.70
2022-11-21T19:49:07.693Z,1.70
2022-11-21T19:51:37.821Z,1.70
2022-11-21T19:54:06.219Z,1.60
2022-11-21T20:01:29.629Z,1.50
2022-11-21T20:03:58.850Z,1.40
2022-11-21T20:06:28.255Z,1.40
2022-11-21T20:09:05.542Z,1.40
2022-11-21T20:11:33.356Z,1.40
2022-11-21T20:16:39.218Z,1.40
2022-11-21T20:19:08.433Z,1.40
2022-11-21T20:24:03.791Z,1.60
2022-11-21T20:31:28.173Z,1.70
2022-11-21T20:34:00.782Z,1.70
2022-11-21T20:36:30.787Z,1.70
2022-11-21T20:39:07.943Z,1.70
2022-11-21T20:41:36.644Z,1.70
2022-11-21T21:24:11.070Z,2.00
2022-11-21T21:26:44.195Z,2.00
2022-11-21T21:29:13.359Z,2.10
2022-11-21T21:56:29.159Z,2.30
2022-11-21T21:58:59.397Z,2.30
2022-11-21T22:01:31.452Z,2.30
2022-11-21T22:04:00.486Z,2.30
2022-11-21T22:08:56.062Z,2.20
2022-11-21T22:11:28.630Z,2.20
2022-11-21T22:13:57.732Z,2.10
2022-11-21T22:16:25.305Z,2.10
2022-11-21T22:24:09.801Z,2.00
2022-11-21T22:31:31.384Z,2.10
2022-11-21T22:38:54.811Z,2.20
2022-11-21T22:41:24.035Z,2.20
2022-11-21T22:43:59.465Z,2.20
2022-11-21T22:46:28.147Z,2.30
2022-11-21T22:51:25.306Z,2.30
2022-11-21T22:56:22.147Z,2.30
2022-11-21T22:58:50.238Z,2.30
2022-11-21T23:01:25.791Z,2.30
2022-11-21T23:03:53.442Z,2.40
2022-11-21T23:06:23.545Z,2.30
2022-11-21T23:08:54.421Z,2.40
2022-11-21T23:11:24.349Z,2.30
2022-11-21T23:13:53.194Z,2.40
2022-11-21T23:18:48.802Z,2.40
2022-11-21T23:45:52.631Z,2.10
2022-11-21T23:48:20.039Z,2.00
2022-11-21T23:50:48.149Z,2.00
2022-11-21T23:55:43.803Z,2.00
